Bayfield, Canada
Current Conditions -  °F | °C
As of 3:00 AM on Saturday 22 Nov 2014 (Local Time) from CYXU Reporting Station
Overcast Overcast  
Wind Chill: 13°   Ceiling: 13000
Heat Index: 25°   Visibility: 15mi
Dew Point: 16°   Wind: 14mph
Humidity: 69%   Direction: 210°SSW
Pressure: 30.26"   Gusts: NA
Location:  43.56°N, 81.7°W
Report Text: CYXU 220800Z 21012KT 15SM OVC130 M04/M09 A3026 RMK AC8 SLP262
Loading
Personal Weather Stations






























Interactive Weather Map New forecast layout! Learn more

10-Day Weather Forecast

Advertisements
Track Severe Weather on mobile